Time;durP1;ratioP1;P1;durP2;ratioP2;P2;SDS_P1;SDS_P2;PMS_P1;PMS_P2;Temp;Humidity;BMP_temperature;BMP_pressure;BME280_temperature;BME280_humidity;BME280_pressure;Samples;Min_cycle;Max_cycle;Signal;HPM_P1;HPM_P2
2023/01/23 00:01:34;;;;;;;16.67;7.93;;;;;;;4.93;73.73;101219.94;5002160;28;20046;-69
2023/01/23 00:04:03;;;;;;;14.82;7.80;;;;;;;4.96;72.18;101218.66;4991598;28;20046;-69
2023/01/23 00:06:31;;;;;;;13.52;7.15;;;;;;;4.94;72.01;101215.34;4992837;28;20405;-69
2023/01/23 00:09:00;;;;;;;12.93;6.95;;;;;;;5.16;71.10;101201.31;4991501;28;20053;-70
2023/01/23 00:11:29;;;;;;;11.60;6.65;;;;;;;5.13;72.09;101189.03;4992765;28;20057;-69
2023/01/23 00:13:59;;;;;;;15.02;7.70;;;;;;;5.08;71.83;101197.84;4992672;28;20489;-69
2023/01/23 00:16:30;;;;;;;9.18;6.80;;;;;;;5.16;71.72;101187.75;4992684;28;20430;-70
2023/01/23 00:18:58;;;;;;;12.95;6.25;;;;;;;5.11;72.01;101188.44;4975114;28;20051;-70
2023/01/23 00:21:28;;;;;;;10.38;6.65;;;;;;;5.18;70.28;101172.88;4992415;28;20393;-69
2023/01/23 00:23:58;;;;;;;14.48;6.60;;;;;;;5.37;70.28;101175.56;4973465;28;20059;-69
2023/01/23 00:26:28;;;;;;;11.98;6.78;;;;;;;5.35;69.39;101164.97;4972506;28;20055;-70
2023/01/23 00:28:56;;;;;;;9.40;6.22;;;;;;;5.45;69.45;101155.41;4975736;28;20493;-70
2023/01/23 00:31:30;;;;;;;10.80;6.38;;;;;;;5.44;70.32;101151.03;4976971;28;20486;-69
2023/01/23 00:34:00;;;;;;;12.88;7.13;;;;;;;5.33;69.75;101156.19;4977083;28;20053;-70
2023/01/23 00:36:36;;;;;;;12.02;7.03;;;;;;;5.24;70.60;101166.53;4976964;28;20042;-69
2023/01/23 00:39:08;;;;;;;11.43;6.60;;;;;;;5.02;72.11;101163.50;4975833;28;20050;-70
2023/01/23 00:41:36;;;;;;;11.30;6.95;;;;;;;5.14;72.62;101157.31;4976776;28;20474;-69
2023/01/23 00:44:04;;;;;;;11.75;7.00;;;;;;;5.07;72.66;101155.50;4976926;28;20159;-70
2023/01/23 00:46:33;;;;;;;11.05;6.63;;;;;;;5.22;72.68;101160.53;4975457;28;20046;-69
2023/01/23 00:49:02;;;;;;;11.80;6.55;;;;;;;5.23;71.53;101162.19;4976675;28;20061;-69
2023/01/23 00:51:30;;;;;;;12.75;7.38;;;;;;;5.35;72.05;101159.53;4975313;28;20043;-70
2023/01/23 00:53:58;;;;;;;7.55;5.78;;;;;;;5.36;71.04;101149.47;4975573;28;20512;-69
2023/01/23 00:56:29;;;;;;;11.13;6.47;;;;;;;5.38;70.45;101152.81;4975637;28;20047;-69
2023/01/23 00:58:57;;;;;;;10.57;6.18;;;;;;;5.27;71.24;101156.31;4976647;28;20057;-69
2023/01/23 01:01:26;;;;;;;12.05;6.80;;;;;;;5.26;71.16;101155.47;4976375;28;20421;-69
2023/01/23 01:03:54;;;;;;;9.82;6.60;;;;;;;5.34;70.61;101146.19;4975243;28;20367;-69
2023/01/23 01:06:22;;;;;;;14.00;7.22;;;;;;;5.45;70.14;101153.53;4975200;28;20043;-69
2023/01/23 01:08:50;;;;;;;9.77;6.40;;;;;;;5.57;69.72;101150.84;4976288;28;20047;-69
2023/01/23 01:11:18;;;;;;;8.88;5.78;;;;;;;5.48;70.92;101146.81;4976425;28;20051;-69
2023/01/23 01:13:46;;;;;;;10.25;6.95;;;;;;;5.44;71.65;101145.63;4976291;28;20074;-69
2023/01/23 01:16:15;;;;;;;12.07;6.47;;;;;;;5.41;73.62;101141.47;4974962;28;20053;-69
2023/01/23 01:18:43;;;;;;;9.45;5.80;;;;;;;5.33;73.42;101134.47;4975061;28;20042;-69
2023/01/23 01:21:13;;;;;;;12.70;6.47;;;;;;;5.25;73.44;101138.34;4975903;28;20051;-69
2023/01/23 01:23:42;;;;;;;11.60;7.30;;;;;;;5.22;73.35;101137.97;4972397;28;20520;-70
2023/01/23 01:26:10;;;;;;;11.15;7.13;;;;;;;5.25;73.34;101134.81;4976106;28;20387;-69
2023/01/23 01:28:40;;;;;;;9.55;6.30;;;;;;;5.24;74.03;101131.25;4995422;28;20046;-69
2023/01/23 01:31:12;;;;;;;9.82;5.72;;;;;;;5.28;75.36;101122.69;4995697;28;20051;-69
2023/01/23 01:33:42;;;;;;;12.95;6.68;;;;;;;5.23;74.03;101134.22;4978021;28;20054;-69
2023/01/23 01:36:14;;;;;;;11.93;6.88;;;;;;;5.15;74.46;101120.97;4995423;28;20508;-69
2023/01/23 01:38:42;;;;;;;11.32;5.85;;;;;;;5.09;74.92;101118.13;4994930;28;20047;-69
2023/01/23 01:41:12;;;;;;;9.52;5.70;;;;;;;5.19;74.63;101130.31;4995164;28;20049;-70
2023/01/23 01:43:40;;;;;;;10.13;5.85;;;;;;;5.02;75.88;101130.94;4994016;28;20047;-69
2023/01/23 01:46:22;;;;;;;11.90;6.25;;;;;;;5.07;75.41;101135.69;4995194;28;20046;-69
2023/01/23 01:49:05;;;;;;;9.20;5.80;;;;;;;5.11;75.01;101142.31;4993969;28;20046;-69
2023/01/23 01:51:49;;;;;;;12.95;5.57;;;;;;;5.10;75.73;101133.31;4993860;28;20053;-69
2023/01/23 01:54:39;;;;;;;10.82;5.53;;;;;;;5.12;74.41;101138.53;4993992;28;20051;-69
2023/01/23 01:57:28;;;;;;;9.93;5.90;;;;;;;5.38;73.32;101134.63;4995044;28;20042;-69
2023/01/23 02:00:12;;;;;;;10.80;6.57;;;;;;;5.47;72.83;101131.59;4993611;28;20057;-70
2023/01/23 02:02:49;;;;;;;11.50;6.57;;;;;;;5.43;73.65;101131.19;4994692;28;20038;-69
2023/01/23 02:05:24;;;;;;;13.38;7.60;;;;;;;5.43;73.70;101130.41;4993554;28;20293;-69
2023/01/23 02:07:55;;;;;;;12.20;6.68;;;;;;;5.47;73.88;101120.72;4977295;28;20039;-69
2023/01/23 02:10:23;;;;;;;10.25;6.55;;;;;;;5.45;74.32;101114.69;4977289;28;20042;-69
2023/01/23 02:12:52;;;;;;;11.77;6.95;;;;;;;5.40;74.39;101107.25;4994662;28;20042;-69
2023/01/23 02:15:21;;;;;;;14.20;7.20;;;;;;;5.41;74.34;101100.75;4993344;28;20047;-69
2023/01/23 02:17:52;;;;;;;13.30;7.65;;;;;;;5.33;75.13;101092.97;4994538;28;20062;-69
2023/01/23 02:20:25;;;;;;;11.60;6.95;;;;;;;5.26;76.21;101090.34;4993936;28;20065;-70
2023/01/23 02:22:56;;;;;;;11.48;6.72;;;;;;;5.21;75.34;101095.63;4994208;28;20057;-70
2023/01/23 02:25:30;;;;;;;15.52;6.90;;;;;;;5.37;75.01;101086.81;4994429;28;20046;-69
2023/01/23 02:28:00;;;;;;;11.48;6.50;;;;;;;5.30;75.68;101077.97;4993239;28;20054;-69
2023/01/23 02:30:29;;;;;;;10.27;6.30;;;;;;;5.34;76.34;101068.28;4977045;28;20046;-70
2023/01/23 02:33:30;;;;;;;9.60;6.15;;;;;;;5.33;76.56;101057.69;4993090;28;20050;-70
2023/01/23 02:35:59;;;;;;;11.00;6.32;;;;;;;5.22;76.84;101060.13;4925949;28;20059;-69
2023/01/23 02:38:34;;;;;;;13.00;6.65;;;;;;;5.16;78.00;101046.66;4992941;28;20424;-70
2023/01/23 02:41:06;;;;;;;12.23;6.30;;;;;;;5.23;78.61;101033.81;4992775;28;20046;-69
2023/01/23 02:43:36;;;;;;;9.45;5.97;;;;;;;5.13;78.35;101031.66;4992932;28;20042;-70
2023/01/23 02:46:11;;;;;;;10.27;6.15;;;;;;;5.25;78.40;101029.78;4976699;28;20050;-70
2023/01/23 02:48:39;;;;;;;13.50;6.85;;;;;;;5.25;78.74;101028.97;4993953;28;20053;-70
2023/01/23 02:51:07;;;;;;;10.55;6.75;;;;;;;5.22;78.81;101032.16;4975254;28;20038;-69
2023/01/23 02:53:36;;;;;;;9.85;6.32;;;;;;;5.24;78.68;101025.44;4992598;28;20042;-69
2023/01/23 02:56:05;;;;;;;10.57;6.97;;;;;;;5.06;79.66;101026.34;4992689;28;20050;-69
2023/01/23 03:01:19;;;;;;;9.63;7.07;;;;;;;5.24;79.00;101019.19;4993660;28;20046;-70
2023/01/23 03:03:50;;;;;;;10.45;7.00;;;;;;;5.24;78.74;101028.16;4992482;28;20497;-70
2023/01/23 03:06:19;;;;;;;11.82;6.63;;;;;;;5.02;79.31;101017.00;4992531;28;20050;-70
2023/01/23 03:08:50;;;;;;;12.13;7.10;;;;;;;5.17;78.04;101018.44;4993578;28;20058;-70
2023/01/23 03:11:18;;;;;;;12.07;6.85;;;;;;;5.36;77.40;101009.19;4975972;28;20058;-69
2023/01/23 03:13:46;;;;;;;9.07;6.47;;;;;;;5.45;78.29;101000.69;4976198;28;20038;-69
2023/01/23 03:16:14;;;;;;;9.82;6.35;;;;;;;5.60;75.90;100992.91;4993512;28;20046;-70
2023/01/23 03:18:43;;;;;;;11.32;6.40;;;;;;;5.65;75.99;101003.06;4993351;28;20406;-69
2023/01/23 03:21:21;;;;;;;10.43;6.10;;;;;;;5.55;75.73;100995.50;4992022;28;20061;-70
2023/01/23 03:23:49;;;;;;;12.15;6.82;;;;;;;5.52;76.08;100990.53;4957918;28;20058;-69
2023/01/23 03:26:17;;;;;;;12.25;6.68;;;;;;;5.46;75.76;100984.16;4972699;28;20047;-70
2023/01/23 03:31:51;;;;;;;9.52;5.70;;;;;;;5.67;72.97;100978.38;4952141;29;20050;-69
2023/01/23 03:34:20;;;;;;;8.80;5.85;;;;;;;5.73;72.62;100977.44;4969920;28;20062;-69
2023/01/23 03:36:48;;;;;;;10.25;5.55;;;;;;;5.73;71.91;100970.09;4973646;28;20058;-70
2023/01/23 03:42:03;;;;;;;10.02;6.20;;;;;;;5.85;71.28;100980.13;4971601;28;20050;-70
2023/01/23 03:44:32;;;;;;;10.82;6.15;;;;;;;5.90;69.67;100985.66;4972482;28;20500;-69
2023/01/23 03:47:02;;;;;;;9.05;5.85;;;;;;;5.95;68.29;100985.78;4956465;28;20224;-70
2023/01/23 03:49:30;;;;;;;8.20;5.82;;;;;;;5.95;69.46;100984.97;4973440;28;20417;-69
2023/01/23 03:51:59;;;;;;;8.38;5.65;;;;;;;5.96;69.93;100967.59;4972334;28;20489;-70
2023/01/23 03:54:28;;;;;;;9.20;5.68;;;;;;;5.90;69.59;100959.34;4972363;28;20046;-70
2023/01/23 03:56:56;;;;;;;12.20;6.00;;;;;;;5.85;72.13;100964.66;4972314;28;20409;-69
2023/01/23 03:59:44;;;;;;;8.38;5.32;;;;;;;6.01;73.05;100948.69;4973137;28;20058;-70
2023/01/23 04:02:12;;;;;;;10.30;5.88;;;;;;;6.05;71.48;100945.28;4972019;28;20051;-69
2023/01/23 04:04:40;;;;;;;8.15;5.15;;;;;;;5.84;70.92;100933.13;4973399;28;20046;-70
2023/01/23 04:07:08;;;;;;;10.25;5.30;;;;;;;5.93;73.56;100914.56;4973458;28;20050;-69
2023/01/23 04:09:38;;;;;;;8.10;5.95;;;;;;;6.00;73.82;100914.41;4955998;28;20043;-69
2023/01/23 04:12:07;;;;;;;9.02;5.45;;;;;;;5.95;73.00;100912.44;4972110;28;20401;-69
2023/01/23 04:14:39;;;;;;;9.25;5.55;;;;;;;5.86;73.36;100898.41;4972149;28;20429;-70
2023/01/23 04:17:07;;;;;;;11.75;5.63;;;;;;;5.90;73.21;100891.44;4972016;28;20057;-69
2023/01/23 04:19:36;;;;;;;9.70;5.53;;;;;;;5.90;74.42;100896.03;4972015;28;20046;-69
2023/01/23 04:22:04;;;;;;;8.98;5.55;;;;;;;5.94;74.67;100889.06;4972784;28;20046;-70
2023/01/23 04:24:39;;;;;;;9.13;5.93;;;;;;;5.95;73.83;100892.59;4972079;28;20035;-70
2023/01/23 04:27:07;;;;;;;9.43;5.30;;;;;;;5.92;74.02;100886.56;4973178;28;20051;-69
2023/01/23 04:29:35;;;;;;;7.03;4.55;;;;;;;5.89;74.82;100878.09;4971892;28;20051;-69
2023/01/23 04:32:03;;;;;;;8.60;5.13;;;;;;;5.92;72.34;100886.56;4971943;28;20043;-69
2023/01/23 04:34:34;;;;;;;8.50;4.57;;;;;;;5.98;70.94;100879.38;4971940;28;20046;-69
2023/01/23 04:37:02;;;;;;;7.72;4.57;;;;;;;5.99;71.16;100870.16;4973071;28;20047;-69
2023/01/23 04:39:32;;;;;;;6.53;4.40;;;;;;;6.00;69.16;100876.38;4971824;28;20042;-70
2023/01/23 04:42:00;;;;;;;6.80;4.20;;;;;;;6.05;68.90;100869.19;4971713;28;20042;-70
2023/01/23 04:44:46;;;;;;;7.38;4.55;;;;;;;5.96;69.08;100858.94;4973058;28;20047;-69
2023/01/23 04:47:37;;;;;;;7.22;4.05;;;;;;;5.98;69.59;100859.50;4966523;28;20062;-70
2023/01/23 04:50:10;;;;;;;6.93;4.30;;;;;;;5.93;69.20;100871.09;4971726;28;20058;-70
2023/01/23 04:52:38;;;;;;;7.25;4.75;;;;;;;5.80;70.17;100877.63;4955702;28;20054;-70
2023/01/23 04:55:07;;;;;;;6.47;4.03;;;;;;;5.76;70.05;100865.59;4972967;28;20050;-69
2023/01/23 04:57:35;;;;;;;8.50;4.80;;;;;;;5.97;68.35;100861.38;4971702;28;20785;-69
2023/01/23 05:00:15;;;;;;;6.18;3.97;;;;;;;6.11;68.06;100850.28;4971696;28;20046;-69
2023/01/23 05:02:45;;;;;;;3.55;2.92;;;;;;;6.21;63.53;100860.50;4971487;28;20127;-70
2023/01/23 05:05:13;;;;;;;3.55;2.78;;;;;;;6.28;64.29;100864.75;4971730;28;20437;-69
2023/01/23 05:07:42;;;;;;;5.45;3.80;;;;;;;6.34;65.61;100862.13;4971644;28;20058;-70
2023/01/23 05:10:14;;;;;;;8.90;4.25;;;;;;;6.21;68.86;100883.06;4971585;28;20405;-69
2023/01/23 05:12:43;;;;;;;6.28;4.15;;;;;;;5.81;69.92;100884.72;4971615;28;20050;-69
2023/01/23 05:15:11;;;;;;;9.45;4.35;;;;;;;5.79;70.37;100893.09;4974258;28;20397;-69
2023/01/23 05:17:41;;;;;;;7.57;4.53;;;;;;;6.07;72.18;100887.16;4975051;28;20073;-69
2023/01/23 05:20:11;;;;;;;6.82;4.25;;;;;;;6.26;72.04;100879.63;4959275;28;20047;-69
2023/01/23 05:22:50;;;;;;;6.90;3.53;;;;;;;6.10;73.67;100882.06;4974673;28;20047;-72
2023/01/23 05:25:25;;;;;;;5.68;3.83;;;;;;;6.29;74.05;100884.56;4958981;28;20050;-69
2023/01/23 05:27:55;;;;;;;5.30;3.75;;;;;;;6.33;75.85;100888.47;4974916;28;20042;-70
2023/01/23 05:30:25;;;;;;;5.95;4.25;;;;;;;6.30;76.23;100887.06;4974778;28;20501;-70
2023/01/23 05:33:02;;;;;;;6.55;3.88;;;;;;;6.23;76.25;100880.09;4974492;28;20038;-69
2023/01/23 05:35:30;;;;;;;4.15;3.45;;;;;;;6.40;73.33;100886.41;4974811;28;20039;-69
2023/01/23 05:37:59;;;;;;;5.85;4.05;;;;;;;6.38;76.68;100876.84;4974735;28;20042;-69
2023/01/23 05:40:28;;;;;;;7.03;3.80;;;;;;;6.27;77.22;100886.72;4974526;28;20058;-69
2023/01/23 05:43:22;;;;;;;7.20;4.03;;;;;;;6.35;81.42;100902.63;4952892;28;20054;-70
2023/01/23 05:46:07;;;;;;;5.32;3.92;;;;;;;6.38;82.08;100896.72;4956980;28;20061;-70
2023/01/23 05:48:50;;;;;;;10.05;3.95;;;;;;;6.36;81.46;100884.44;4956960;28;20050;-70
2023/01/23 05:51:20;;;;;;;8.70;3.97;;;;;;;6.26;82.32;100891.31;4974000;28;20043;-70
2023/01/23 05:53:49;;;;;;;5.35;3.90;;;;;;;6.22;85.15;100902.94;4974257;28;20050;-69
2023/01/23 05:56:18;;;;;;;7.55;4.00;;;;;;;6.11;83.00;100899.19;4958142;28;20433;-69
2023/01/23 05:59:04;;;;;;;6.07;4.15;;;;;;;6.27;83.12;100898.41;4975635;28;20046;-69
2023/01/23 06:01:42;;;;;;;5.90;4.00;;;;;;;6.25;82.26;100895.09;4957155;28;20039;-70
2023/01/23 06:04:29;;;;;;;7.10;4.22;;;;;;;6.32;83.17;100900.41;4972991;28;20042;-68
2023/01/23 06:07:18;;;;;;;7.63;4.97;;;;;;;6.30;83.35;100905.25;4974138;28;20035;-71
2023/01/23 06:09:49;;;;;;;6.28;4.25;;;;;;;6.33;82.78;100902.06;4965458;28;20049;-69
2023/01/23 06:12:17;;;;;;;6.32;3.90;;;;;;;6.39;82.70;100898.34;4973728;28;20047;-70
2023/01/23 06:14:46;;;;;;;6.43;4.53;;;;;;;6.28;83.33;100882.94;4972567;28;20382;-70
2023/01/23 06:17:14;;;;;;;8.48;4.85;;;;;;;6.30;86.26;100891.66;4953972;28;20048;-71
2023/01/23 06:19:42;;;;;;;6.38;4.00;;;;;;;6.37;88.74;100881.47;4954890;28;20058;-80
2023/01/23 06:22:11;;;;;;;6.78;4.50;;;;;;;6.37;86.89;100886.06;4958445;28;20046;-72
2023/01/23 06:25:00;;;;;;;8.50;5.18;;;;;;;6.09;88.03;100874.97;4991058;28;20049;-73
2023/01/23 06:27:28;;;;;;;6.30;4.28;;;;;;;6.01;88.16;100872.63;4993730;28;20038;-73
2023/01/23 06:29:58;;;;;;;6.40;4.07;;;;;;;5.96;87.77;100864.38;4983204;28;20050;-73
2023/01/23 06:32:26;;;;;;;5.63;3.70;;;;;;;6.04;87.88;100872.16;4976203;28;20042;-74
2023/01/23 06:34:54;;;;;;;9.02;4.15;;;;;;;6.07;88.23;100873.56;4975254;28;20045;-72
2023/01/23 06:37:22;;;;;;;6.00;4.03;;;;;;;5.97;88.83;100877.69;4976577;28;20065;-74
2023/01/23 06:39:50;;;;;;;8.32;4.50;;;;;;;5.92;89.63;100875.72;4975199;28;20042;-73
2023/01/23 06:42:19;;;;;;;5.03;3.42;;;;;;;5.98;88.48;100878.53;4972967;28;20390;-73
2023/01/23 06:44:49;;;;;;;6.57;3.95;;;;;;;6.09;88.48;100868.69;4970391;28;20054;-70
2023/01/23 06:47:18;;;;;;;7.28;3.97;;;;;;;6.11;89.34;100872.81;4974630;28;20053;-71
2023/01/23 06:49:54;;;;;;;7.55;4.68;;;;;;;6.05;92.01;100879.22;4995120;28;20050;-71
2023/01/23 06:52:24;;;;;;;7.80;4.40;;;;;;;5.96;91.54;100876.03;4994652;28;20054;-71
2023/01/23 06:54:51;;;;;;;5.53;4.10;;;;;;;6.05;90.81;100874.63;5012196;28;20388;-71
2023/01/23 06:57:20;;;;;;;6.68;3.90;;;;;;;6.08;90.94;100883.38;4995353;28;20480;-71
2023/01/23 06:59:49;;;;;;;6.03;3.90;;;;;;;5.98;90.68;100878.53;4995651;28;20046;-71
2023/01/23 07:02:19;;;;;;;7.20;4.10;;;;;;;5.96;91.99;100869.81;4994919;28;20052;-72
2023/01/23 07:04:50;;;;;;;5.90;4.03;;;;;;;5.79;92.08;100871.38;4987923;28;20046;-72
2023/01/23 07:07:18;;;;;;;5.40;3.78;;;;;;;5.89;91.86;100861.78;5012481;28;20061;-72
2023/01/23 07:09:48;;;;;;;6.53;3.88;;;;;;;5.93;90.97;100865.69;4995042;28;20069;-70
2023/01/23 07:12:19;;;;;;;6.32;4.03;;;;;;;6.00;90.46;100866.34;4994909;28;20049;-70
2023/01/23 07:14:47;;;;;;;5.65;3.80;;;;;;;5.96;92.70;100859.75;5004010;28;20065;-71
2023/01/23 07:17:21;;;;;;;8.20;4.78;;;;;;;6.08;90.91;100867.06;4995011;28;20050;-70
2023/01/23 07:19:50;;;;;;;9.70;4.10;;;;;;;6.10;90.96;100854.06;4994867;28;20385;-71
2023/01/23 07:22:21;;;;;;;5.68;3.60;;;;;;;6.10;92.18;100841.28;4994453;28;20061;-72
2023/01/23 07:24:49;;;;;;;5.32;4.00;;;;;;;6.14;91.19;100849.78;5011357;28;20053;-72
2023/01/23 07:27:17;;;;;;;6.25;4.10;;;;;;;6.16;91.15;100848.47;5012064;28;20057;-72
2023/01/23 07:29:44;;;;;;;6.68;3.92;;;;;;;6.22;88.57;100845.84;5012595;28;20048;-72
2023/01/23 07:32:12;;;;;;;5.38;3.50;;;;;;;6.26;89.19;100847.03;5011527;28;20054;-72
2023/01/23 07:34:40;;;;;;;5.72;3.58;;;;;;;6.19;92.07;100849.88;5011872;28;20049;-72
2023/01/23 07:37:08;;;;;;;5.32;4.07;;;;;;;6.22;92.56;100845.84;5012253;28;20041;-72
2023/01/23 07:39:36;;;;;;;6.63;3.75;;;;;;;6.15;92.50;100843.28;5012495;28;20408;-72
2023/01/23 07:42:04;;;;;;;5.43;3.65;;;;;;;6.16;90.73;100853.91;5012269;28;20049;-72
2023/01/23 07:44:32;;;;;;;7.97;4.10;;;;;;;6.16;93.91;100859.34;5012474;28;20064;-72
2023/01/23 07:46:59;;;;;;;8.43;4.32;;;;;;;6.24;92.33;100851.84;5012007;28;20053;-72
2023/01/23 07:49:27;;;;;;;12.82;4.90;;;;;;;6.29;91.42;100850.06;5011385;28;20057;-72
2023/01/23 07:51:55;;;;;;;7.43;4.05;;;;;;;6.38;90.95;100860.53;5011470;28;20061;-72
2023/01/23 07:54:23;;;;;;;6.07;4.57;;;;;;;6.54;89.90;100869.78;5011932;28;20046;-73
2023/01/23 07:56:51;;;;;;;9.88;5.05;;;;;;;6.44;92.42;100868.56;5011414;28;20056;-72
2023/01/23 07:59:19;;;;;;;9.98;6.40;;;;;;;6.31;93.28;100866.94;5011179;28;20061;-72
2023/01/23 08:01:48;;;;;;;12.98;7.38;;;;;;;6.40;91.59;100870.09;5012103;28;20046;-72
2023/01/23 08:04:15;;;;;;;13.93;7.35;;;;;;;6.37;93.43;100873.31;5011439;28;20081;-72
2023/01/23 08:06:44;;;;;;;10.70;6.70;;;;;;;6.29;93.15;100879.97;5011292;28;20053;-72
2023/01/23 08:09:12;;;;;;;11.23;5.85;;;;;;;6.32;92.79;100878.66;5010878;28;20049;-71
2023/01/23 08:11:40;;;;;;;9.50;5.50;;;;;;;6.28;93.74;100881.03;5011479;28;20061;-71
2023/01/23 08:14:08;;;;;;;6.95;4.22;;;;;;;6.40;94.03;100874.72;5011599;28;20054;-71
2023/01/23 08:16:36;;;;;;;7.90;4.72;;;;;;;6.48;93.83;100874.31;5011204;28;20061;-72
2023/01/23 08:19:07;;;;;;;8.50;4.80;;;;;;;6.39;94.96;100870.34;5011944;28;20046;-70
2023/01/23 08:21:35;;;;;;;6.65;4.80;;;;;;;6.51;94.63;100881.16;4994393;28;20081;-70
2023/01/23 08:24:03;;;;;;;5.03;4.47;;;;;;;6.62;96.37;100882.16;5012041;28;20381;-71
2023/01/23 08:26:32;;;;;;;7.53;4.40;;;;;;;6.54;96.36;100891.53;5011947;28;20046;-71
2023/01/23 08:29:00;;;;;;;7.03;4.80;;;;;;;6.64;95.46;100897.16;4994640;28;20400;-70
2023/01/23 08:31:28;;;;;;;6.13;4.45;;;;;;;6.63;95.99;100900.13;5011867;28;20052;-71
2023/01/23 08:33:56;;;;;;;9.25;5.35;;;;;;;6.61;94.55;100903.09;4994467;28;20046;-71
2023/01/23 08:36:24;;;;;;;8.57;5.65;;;;;;;6.70;95.47;100898.88;5011803;28;20501;-70
2023/01/23 08:38:52;;;;;;;11.73;5.13;;;;;;;6.75;95.43;100905.50;5011780;28;20050;-71
2023/01/23 08:41:20;;;;;;;8.45;5.45;;;;;;;6.80;96.35;100913.75;5011561;28;20052;-71
2023/01/23 08:43:49;;;;;;;10.02;5.50;;;;;;;6.79;97.03;100906.66;5011658;28;20476;-71
2023/01/23 08:46:16;;;;;;;9.60;6.50;;;;;;;6.84;95.17;100910.28;4994026;28;20054;-71
2023/01/23 08:48:44;;;;;;;11.60;7.43;;;;;;;6.86;98.41;100918.22;5012483;28;20370;-71
2023/01/23 08:51:13;;;;;;;11.95;6.40;;;;;;;6.93;99.18;100923.47;5015406;28;20412;-70
2023/01/23 08:53:41;;;;;;;11.10;7.05;;;;;;;6.92;99.00;100925.38;5014551;28;20053;-71
2023/01/23 08:56:17;;;;;;;15.68;7.47;;;;;;;7.01;100.00;100927.69;5014324;28;20053;-71
2023/01/23 08:58:46;;;;;;;9.60;5.50;;;;;;;7.12;98.08;100929.50;5014511;28;20050;-70
2023/01/23 09:01:16;;;;;;;8.57;5.63;;;;;;;7.12;100.00;100935.78;5014680;28;20537;-70
2023/01/23 09:03:45;;;;;;;8.60;6.07;;;;;;;7.13;99.69;100936.59;5014204;28;20480;-72
2023/01/23 09:06:15;;;;;;;18.77;14.93;;;;;;;7.07;100.00;100937.56;5015149;28;20049;-71
2023/01/23 09:08:44;;;;;;;14.88;8.80;;;;;;;7.06;100.00;100946.81;5014368;28;20060;-71
2023/01/23 09:11:12;;;;;;;12.65;6.57;;;;;;;7.03;100.00;100941.88;5014379;28;20050;-70
2023/01/23 09:13:41;;;;;;;7.10;5.38;;;;;;;7.00;100.00;100943.19;5014571;28;20046;-72
2023/01/23 09:16:09;;;;;;;10.20;6.70;;;;;;;6.97;100.00;100951.84;5014629;28;20496;-71
2023/01/23 09:18:37;;;;;;;17.33;6.22;;;;;;;7.08;100.00;100958.28;5014221;28;20420;-71
2023/01/23 09:21:07;;;;;;;8.63;6.07;;;;;;;6.99;100.00;100958.69;5014113;28;20071;-71
2023/01/23 09:23:35;;;;;;;13.18;5.90;;;;;;;6.85;100.00;100960.09;5014050;28;20053;-71
2023/01/23 09:26:07;;;;;;;9.90;6.15;;;;;;;6.84;100.00;100961.13;5014699;28;20404;-72
2023/01/23 09:28:37;;;;;;;12.27;6.65;;;;;;;6.93;100.00;100956.94;5014790;28;20038;-71
2023/01/23 09:31:06;;;;;;;9.77;5.63;;;;;;;6.92;100.00;100963.47;5014068;28;20489;-71
2023/01/23 09:33:35;;;;;;;10.63;6.10;;;;;;;6.90;100.00;100959.34;5014754;28;20050;-72
2023/01/23 09:36:04;;;;;;;9.40;5.22;;;;;;;6.92;100.00;100952.59;5013457;28;20046;-71
2023/01/23 09:38:32;;;;;;;8.18;5.53;;;;;;;7.11;100.00;100955.06;5014135;28;20069;-72
2023/01/23 09:41:16;;;;;;;10.70;5.70;;;;;;;7.10;100.00;100962.41;5013932;28;20046;-72
2023/01/23 09:44:04;;;;;;;8.90;5.72;;;;;;;7.01;100.00;100960.34;5014178;28;20058;-72
2023/01/23 09:46:34;;;;;;;8.68;5.32;;;;;;;7.02;100.00;100956.53;5013928;28;20061;-72
2023/01/23 09:49:08;;;;;;;8.68;5.28;;;;;;;6.97;100.00;100963.56;5013899;28;20073;-72
2023/01/23 09:51:36;;;;;;;7.70;4.70;;;;;;;6.92;100.00;100968.91;5013695;28;20065;-72
2023/01/23 09:54:27;;;;;;;10.80;5.00;;;;;;;6.91;100.00;100978.16;5013900;28;20049;-71
2023/01/23 09:56:58;;;;;;;6.85;4.20;;;;;;;7.00;100.00;100973.13;5013898;28;20061;-71
2023/01/23 09:59:36;;;;;;;7.20;4.30;;;;;;;7.13;100.00;100980.13;5013906;28;20496;-71
2023/01/23 10:02:24;;;;;;;5.22;3.20;;;;;;;7.08;100.00;100974.59;4996106;28;20046;-70
2023/01/23 10:04:57;;;;;;;6.25;3.72;;;;;;;6.94;100.00;100972.19;5014313;28;20077;-70
2023/01/23 10:07:52;;;;;;;4.43;3.40;;;;;;;6.75;100.00;100978.94;5014153;28;20049;-69
2023/01/23 10:10:38;;;;;;;7.30;3.92;;;;;;;6.84;100.00;100975.56;5012984;28;20507;-69
2023/01/23 10:13:13;;;;;;;7.07;4.00;;;;;;;7.03;100.00;100978.06;5012885;28;20058;-69
2023/01/23 10:16:01;;;;;;;8.25;4.60;;;;;;;7.11;100.00;100971.41;5013522;28;20497;-69
2023/01/23 10:19:07;;;;;;;8.68;3.90;;;;;;;6.92;100.00;100978.97;5013334;28;20054;-71
2023/01/23 10:22:06;;;;;;;8.00;4.25;;;;;;;6.90;100.00;100971.06;5013203;28;20057;-71
2023/01/23 10:24:42;;;;;;;8.68;5.15;;;;;;;6.85;100.00;100987.28;5013807;28;20045;-71
2023/01/23 10:27:28;;;;;;;8.80;5.80;;;;;;;6.92;100.00;100974.34;5013085;28;20061;-71
2023/01/23 10:29:59;;;;;;;;;;;;;;;6.82;100.00;100977.72;5013465;28;20424;-71
2023/01/23 10:32:29;;;;;;;9.27;5.82;;;;;;;6.86;100.00;100978.88;5013310;28;19921;-70
2023/01/23 10:35:21;;;;;;;11.63;5.78;;;;;;;6.90;100.00;100975.66;5013709;28;20042;-71
2023/01/23 10:38:18;;;;;;;8.10;5.47;;;;;;;6.98;100.00;100976.09;5012236;28;20503;-72
2023/01/23 10:41:30;;;;;;;8.40;5.45;;;;;;;6.89;100.00;100969.38;4980255;28;20049;-71
2023/01/23 10:43:40;;;;;;;8.10;4.45;;;;;;;6.92;100.00;100966.19;5007556;28;20053;-71
2023/01/23 10:46:12;;;;;;;8.60;4.80;;;;;;;6.81;100.00;100967.09;5012651;28;20456;-71
2023/01/23 10:48:48;;;;;;;7.72;5.20;;;;;;;6.84;100.00;100951.09;5013257;28;20366;-68
2023/01/23 10:51:38;;;;;;;10.32;5.47;;;;;;;6.95;100.00;100956.72;5012326;28;20049;-69
2023/01/23 10:54:19;;;;;;;9.40;4.22;;;;;;;6.94;100.00;100961.31;5013191;28;20046;-70
2023/01/23 10:57:20;;;;;;;7.97;4.65;;;;;;;6.94;100.00;100966.75;5012674;28;20056;-70
2023/01/23 11:00:03;;;;;;;9.77;4.82;;;;;;;7.01;100.00;100957.59;5012498;28;20058;-69
2023/01/23 11:02:36;;;;;;;8.15;3.92;;;;;;;7.03;100.00;100958.22;5011992;28;20054;-69
2023/01/23 11:05:40;;;;;;;9.75;3.97;;;;;;;7.09;100.00;100958.03;5013242;28;20052;-69
2023/01/23 11:08:22;;;;;;;;;;;;;;;7.17;100.00;100959.53;5013461;28;20053;-69
2023/01/23 11:10:50;;;;;;;2.97;2.30;;;;;;;7.14;100.00;100949.16;5012396;28;19922;-70
2023/01/23 11:13:29;;;;;;;4.00;2.70;;;;;;;7.38;100.00;100954.41;4978900;28;20062;-68
2023/01/23 11:15:57;;;;;;;1.50;1.40;;;;;;;7.04;100.00;100959.84;5012892;28;20048;-71
2023/01/23 11:18:53;;;;;;;1.40;1.30;;;;;;;7.30;100.00;100955.66;4995492;28;20049;-71
2023/01/23 11:21:31;;;;;;;4.13;1.70;;;;;;;7.53;100.00;100946.44;4979040;28;20057;-71
2023/01/23 11:24:08;;;;;;;2.17;1.70;;;;;;;7.59;100.00;100951.97;4995101;28;20065;-72
2023/01/23 11:26:38;;;;;;;4.15;2.47;;;;;;;7.49;100.00;100948.00;4995021;28;20053;-71
2023/01/23 11:29:21;;;;;;;11.18;3.47;;;;;;;7.48;100.00;100948.28;4963283;28;20489;-72
2023/01/23 11:31:58;;;;;;;3.38;3.08;;;;;;;7.47;100.00;100946.63;4959007;28;20051;-69
2023/01/23 11:34:34;;;;;;;6.72;3.78;;;;;;;7.50;100.00;100941.53;4974104;28;20062;-71
2023/01/23 11:37:29;;;;;;;4.82;2.55;;;;;;;7.46;100.00;100940.34;4958371;28;20070;-70
2023/01/23 11:40:17;;;;;;;3.70;2.60;;;;;;;7.40;100.00;100919.56;4959381;28;20050;-70
2023/01/23 11:42:46;;;;;;;5.95;3.95;;;;;;;7.21;100.00;100919.84;4958336;28;20050;-71
2023/01/23 11:45:56;;;;;;;4.75;4.20;;;;;;;7.07;100.00;100899.47;4974280;28;20046;-69
2023/01/23 11:48:45;;;;;;;7.78;4.20;;;;;;;6.85;100.00;100859.44;4979373;28;20057;-70
2023/01/23 11:51:31;;;;;;;5.32;3.13;;;;;;;6.93;100.00;100872.59;4991361;28;20066;-70
2023/01/23 11:54:31;;;;;;;6.90;5.35;;;;;;;7.18;100.00;100912.16;4991858;28;20053;-70
2023/01/23 11:57:31;;;;;;;3.55;2.15;;;;;;;7.25;100.00;100926.44;4992290;28;20050;-70
2023/01/23 12:00:20;;;;;;;1.92;0.85;;;;;;;7.36;100.00;100946.47;4991617;28;20054;-70
2023/01/23 12:02:52;;;;;;;0.30;0.30;;;;;;;7.68;100.00;100934.13;4991962;28;20065;-70
2023/01/23 12:05:23;;;;;;;0.47;0.25;;;;;;;7.74;96.91;100946.75;4992181;28;20057;-71